createdAt,value
2016-05-11T00:00:05.415Z,61.87
2016-05-11T00:01:05.231Z,62.55
2016-05-11T00:02:05.373Z,61.75
2016-05-11T00:03:05.361Z,61.75
2016-05-11T00:04:05.333Z,62.61
2016-05-11T00:05:05.319Z,62.9
2016-05-11T00:06:05.291Z,62.9
2016-05-11T00:07:05.278Z,62.52
2016-05-11T00:08:05.264Z,63.09
2016-05-11T00:09:05.253Z,62.71
2016-05-11T00:10:05.239Z,63.48
2016-05-11T00:11:05.210Z,63.28
2016-05-11T00:12:05.183Z,63.48
2016-05-11T00:13:05.185Z,63.38
2016-05-11T00:14:05.155Z,63.48
2016-05-11T00:15:05.378Z,64.25
2016-05-11T00:16:05.115Z,64.15
2016-05-11T00:17:05.102Z,63.96
2016-05-11T00:18:04.916Z,63.48
2016-05-11T00:19:05.076Z,64.34
2016-05-11T00:20:05.047Z,63.96
2016-05-11T00:21:05.034Z,64.34
2016-05-11T00:22:05.021Z,64.15
2016-05-11T00:23:05.009Z,64.25
2016-05-11T00:24:04.979Z,64.72
2016-05-11T00:25:04.952Z,64.34
2016-05-11T00:26:04.938Z,64.43
2016-05-11T00:27:04.910Z,64.5
2016-05-11T00:28:04.913Z,64.34
2016-05-11T00:29:04.884Z,64.15
2016-05-11T00:30:04.746Z,64.31
2016-05-11T00:31:04.701Z,64.43
2016-05-11T00:32:04.845Z,64.79
2016-05-11T00:33:05.082Z,64.72
2016-05-11T00:34:04.789Z,64.89
2016-05-11T00:35:04.775Z,64.89
2016-05-11T00:36:04.762Z,64.53
2016-05-11T00:37:04.734Z,64.82
2016-05-11T00:38:04.720Z,64.72
2016-05-11T00:39:04.708Z,64.59
2016-05-11T00:40:04.523Z,64.79
2016-05-11T00:41:04.666Z,64.69
2016-05-11T00:42:04.653Z,65.36
2016-05-11T00:43:04.624Z,65.27
2016-05-11T00:44:04.612Z,64.98
2016-05-11T00:45:04.599Z,65.27
2016-05-11T00:46:04.586Z,64.98
2016-05-11T00:47:04.402Z,65.36
2016-05-11T00:48:04.544Z,65.36
2016-05-11T00:49:04.532Z,64.69
2016-05-11T00:50:04.503Z,65.17
2016-05-11T00:51:04.490Z,65.17
2016-05-11T00:52:04.462Z,65.08
2016-05-11T00:53:04.448Z,65.27
2016-05-11T00:54:04.435Z,65.36
2016-05-11T00:55:04.423Z,64.69
2016-05-11T00:56:04.394Z,64.98
2016-05-11T00:57:04.381Z,64.98
2016-05-11T00:58:04.368Z,65.46
2016-05-11T00:59:04.184Z,65.27
2016-05-11T01:00:04.358Z,65.36
2016-05-11T01:01:04.314Z,65.17
2016-05-11T01:02:04.284Z,65.56
2016-05-11T01:03:04.272Z,65.65
2016-05-11T01:04:04.259Z,65.84
2016-05-11T01:05:04.231Z,66.61
2016-05-11T01:06:04.218Z,66.33
2016-05-11T01:07:04.189Z,66.42
2016-05-11T01:08:04.176Z,66.23
2016-05-11T01:09:04.163Z,66.52
2016-05-11T01:10:04.135Z,66.23
2016-05-11T01:11:04.122Z,66.42
2016-05-11T01:12:04.109Z,66.52
2016-05-11T01:13:04.081Z,66.71
2016-05-11T01:14:04.067Z,66.71
2016-05-11T01:15:04.055Z,66.61
2016-05-11T01:16:04.041Z,67.19
2016-05-11T01:17:04.030Z,67.09
2016-05-11T01:18:03.984Z,66.96
2016-05-11T01:19:03.971Z,66.8
2016-05-11T01:20:03.958Z,67.19
2016-05-11T01:21:03.930Z,67.16
2016-05-11T01:22:03.761Z,67.25
2016-05-11T01:23:03.904Z,67.35
2016-05-11T01:24:03.891Z,67.44
2016-05-11T01:25:03.862Z,67.35
2016-05-11T01:26:03.850Z,66.96
2016-05-11T01:27:03.837Z,67.54
2016-05-11T01:28:03.809Z,67.54
2016-05-11T01:29:03.796Z,66.96
2016-05-11T01:30:03.626Z,67.25
2016-05-11T01:31:03.753Z,67.35
2016-05-11T01:32:03.569Z,67.63
2016-05-11T01:33:03.713Z,67.63
2016-05-11T01:34:03.543Z,67.92
2016-05-11T01:35:03.687Z,67.92
2016-05-11T01:36:03.658Z,67.54
2016-05-11T01:37:03.489Z,67.83
2016-05-11T01:38:03.631Z,68.02
2016-05-11T01:39:03.604Z,67.54
2016-05-11T01:40:03.591Z,68.21
2016-05-11T01:41:03.577Z,68.4
2016-05-11T01:42:03.550Z,68.21
2016-05-11T01:43:03.552Z,68.3
2016-05-11T01:44:03.523Z,68.59
2016-05-11T01:45:03.495Z,68.59
2016-05-11T01:46:03.482Z,68.4
2016-05-11T01:47:03.452Z,68.88
2016-05-11T01:48:03.440Z,68.69
2016-05-11T01:49:03.272Z,68.88
2016-05-11T01:50:03.399Z,68.88
2016-05-11T01:51:03.386Z,68.4
2016-05-11T01:52:03.373Z,69.07
2016-05-11T01:53:03.360Z,69.07
2016-05-11T01:54:03.332Z,69.74
2016-05-11T01:55:03.318Z,70.03
2016-05-11T01:56:03.305Z,70.13
2016-05-11T01:57:03.277Z,70.42
2016-05-11T01:58:03.265Z,69.74
2016-05-11T01:59:03.235Z,70.13
2016-05-11T02:00:03.223Z,70.13
2016-05-11T02:01:03.209Z,69.93
2016-05-11T02:02:03.181Z,69.93
2016-05-11T02:03:03.167Z,69.93
2016-05-11T02:04:03.156Z,70.61
2016-05-11T02:05:03.127Z,70.13
2016-05-11T02:06:03.114Z,69.84
2016-05-11T02:07:03.084Z,70.13
2016-05-11T02:08:03.072Z,70.51
2016-05-11T02:09:03.059Z,70.03
2016-05-11T02:10:03.046Z,70.03
2016-05-11T02:11:03.017Z,69.93
2016-05-11T02:12:03.036Z,70.13
2016-05-11T02:13:02.976Z,69.93
2016-05-11T02:14:02.963Z,70.13
2016-05-11T02:15:02.966Z,70.7
2016-05-11T02:16:02.766Z,70.9
2016-05-11T02:17:02.909Z,70.61
2016-05-11T02:18:02.896Z,71.37
2016-05-11T02:19:02.883Z,71.28
2016-05-11T02:20:02.699Z,71.66
2016-05-11T02:21:02.826Z,71.19
2016-05-11T02:22:02.657Z,71.28
2016-05-11T02:23:02.644Z,71.19
2016-05-11T02:24:02.771Z,70.99
2016-05-11T02:25:02.758Z,71.37
2016-05-11T02:26:02.745Z,71.37
2016-05-11T02:27:02.717Z,71.37
2016-05-11T02:28:02.720Z,71.19
2016-05-11T02:29:02.691Z,71.47
2016-05-11T02:30:02.506Z,71.57
2016-05-11T02:31:02.665Z,70.9
2016-05-11T02:32:02.621Z,71.86
2016-05-11T02:33:02.655Z,71.66
2016-05-11T02:34:02.595Z,71.66
2016-05-11T02:35:02.567Z,70.9
2016-05-11T02:36:02.553Z,71.66
2016-05-11T02:37:02.525Z,71.09
2016-05-11T02:38:02.512Z,71.19
2016-05-11T02:39:02.515Z,71.28
2016-05-11T02:40:02.487Z,71.57
2016-05-11T02:41:02.458Z,71.19
2016-05-11T02:42:02.445Z,71.19
2016-05-11T02:43:02.416Z,71.37
2016-05-11T02:44:02.403Z,72.14
2016-05-11T02:45:02.374Z,72.53
2016-05-11T02:46:02.362Z,72.63
2016-05-11T02:47:02.349Z,71.66
2016-05-11T02:48:02.352Z,72.14
2016-05-11T02:49:02.308Z,72.24
2016-05-11T02:50:02.310Z,72.33
2016-05-11T02:51:02.266Z,72.72
2016-05-11T02:52:02.097Z,72.33
2016-05-11T02:53:02.255Z,73.1
2016-05-11T02:54:02.211Z,72.81
2016-05-11T02:55:02.199Z,74.06
2016-05-11T02:56:02.185Z,73.77
2016-05-11T02:57:02.157Z,73.3
2016-05-11T02:58:02.143Z,74.35
2016-05-11T02:59:01.960Z,73.87
2016-05-11T03:00:02.103Z,74.26
2016-05-11T03:01:02.090Z,74.93
2016-05-11T03:02:02.061Z,74.93
2016-05-11T03:03:02.048Z,74.44
2016-05-11T03:04:02.034Z,74.35
2016-05-11T03:05:02.006Z,74.35
2016-05-11T03:06:01.994Z,74.12
2016-05-11T03:07:01.981Z,73.87
2016-05-11T03:08:01.953Z,73.55
2016-05-11T03:09:01.939Z,73.77
2016-05-11T03:10:01.926Z,74.35
2016-05-11T03:11:01.897Z,74.6
2016-05-11T03:12:01.884Z,74.6
2016-05-11T03:13:01.872Z,75.12
2016-05-11T03:14:01.844Z,75.02
2016-05-11T03:15:01.861Z,75.4
2016-05-11T03:16:01.802Z,75.56
2016-05-11T03:17:01.633Z,75.7
2016-05-11T03:18:01.761Z,75.12
2016-05-11T03:19:01.747Z,74.93
2016-05-11T03:20:01.735Z,74.44
2016-05-11T03:21:01.721Z,74.83
2016-05-11T03:22:01.693Z,75.12
2016-05-11T03:23:01.680Z,75.12
2016-05-11T03:24:01.651Z,75.02
2016-05-11T03:25:01.655Z,74.54
2016-05-11T03:26:01.626Z,74.35
2016-05-11T03:27:01.597Z,74.44
2016-05-11T03:28:01.585Z,74.93
2016-05-11T03:29:01.587Z,74.35
2016-05-11T03:30:01.542Z,74.54
2016-05-11T03:31:01.536Z,74.35
2016-05-11T03:32:01.547Z,74.73
2016-05-11T03:33:01.589Z,74.44
2016-05-11T03:34:01.585Z,74.93
2016-05-11T03:35:01.611Z,74.44
2016-05-11T03:36:01.634Z,74.73
2016-05-11T03:37:01.635Z,75.4
2016-05-11T03:38:01.621Z,75.7
2016-05-11T03:39:01.622Z,75.5
2016-05-11T03:40:01.467Z,75.31
2016-05-11T03:41:01.623Z,75.31
2016-05-11T03:42:01.600Z,75.02
2016-05-11T03:43:01.576Z,75.31
2016-05-11T03:44:01.568Z,75.12
2016-05-11T03:45:01.404Z,75.7
2016-05-11T03:46:01.536Z,75.6
2016-05-11T03:47:01.354Z,76.17
2016-05-11T03:48:01.514Z,76.07
2016-05-11T03:49:01.502Z,77.13
2016-05-11T03:50:01.476Z,76.65
2016-05-11T03:51:01.293Z,76.46
2016-05-11T03:52:01.436Z,76.65
2016-05-11T03:53:01.424Z,76.07
2016-05-11T03:54:01.396Z,76.37
2016-05-11T03:55:01.368Z,75.98
2016-05-11T03:56:01.355Z,76.07
2016-05-11T03:57:01.343Z,76.17
2016-05-11T03:58:01.330Z,76.37
2016-05-11T03:59:01.302Z,76.37
2016-05-11T04:00:01.289Z,76.17
2016-05-11T04:01:01.278Z,76.27
2016-05-11T04:02:01.092Z,75.7
2016-05-11T04:03:01.220Z,75.6
2016-05-11T04:04:01.207Z,75.21
2016-05-11T04:05:01.194Z,74.96
2016-05-11T04:06:01.180Z,75.02
2016-05-11T04:07:01.183Z,74.39
2016-05-11T04:08:01.172Z,73.62
2016-05-11T04:09:01.127Z,73.91
2016-05-11T04:10:01.098Z,74.01
2016-05-11T04:11:01.085Z,73.91
2016-05-11T04:12:01.071Z,73.72
2016-05-11T04:13:01.043Z,73.72
2016-05-11T04:14:01.078Z,73.72
2016-05-11T04:15:01.002Z,73.91
2016-05-11T04:16:00.989Z,74.01
2016-05-11T04:17:00.960Z,73.81
2016-05-11T04:18:00.963Z,73.72
2016-05-11T04:19:00.935Z,74.01
2016-05-11T04:20:00.765Z,74.29
2016-05-11T04:21:00.893Z,73.81
2016-05-11T04:22:00.880Z,73.72
2016-05-11T04:23:00.851Z,73.72
2016-05-11T04:24:00.839Z,73.81
2016-05-11T04:25:00.826Z,73.91
2016-05-11T04:26:00.798Z,74.01
2016-05-11T04:27:00.785Z,73.43
2016-05-11T04:28:00.787Z,73.52
2016-05-11T04:29:00.743Z,74.29
2016-05-11T04:30:00.730Z,74.39
2016-05-11T04:31:00.701Z,74.01
2016-05-11T04:32:00.688Z,74.48
2016-05-11T04:33:00.676Z,74.1
2016-05-11T04:34:00.647Z,73.62
2016-05-11T04:35:00.633Z,73.62
2016-05-11T04:36:00.636Z,74.01
2016-05-11T04:37:00.592Z,74.01
2016-05-11T04:38:00.579Z,73.81
2016-05-11T04:39:00.411Z,73.43
2016-05-11T04:40:00.538Z,73.91
2016-05-11T04:41:00.525Z,73.72
2016-05-11T04:42:00.513Z,73.62
2016-05-11T04:43:00.483Z,73.94
2016-05-11T04:44:00.314Z,73.46
2016-05-11T04:45:00.458Z,72.79
2016-05-11T04:46:00.429Z,72.6
2016-05-11T04:47:00.416Z,72.22
2016-05-11T04:48:00.404Z,71.73
2016-05-11T04:49:00.390Z,70.9
2016-05-11T04:50:00.362Z,71.58
2016-05-11T04:51:00.333Z,72.06
2016-05-11T04:52:00.320Z,71.87
2016-05-11T04:53:00.307Z,72.44
2016-05-11T04:54:00.295Z,72.06
2016-05-11T04:55:00.265Z,72.02
2016-05-11T04:56:00.254Z,72.06
2016-05-11T04:57:00.239Z,72.73
2016-05-11T04:58:00.227Z,72.44
2016-05-11T04:59:00.214Z,71.77
2016-05-11T05:00:00.201Z,71.96
2016-05-11T05:01:00.219Z,71.39
2016-05-11T05:01:59.988Z,71.39
2016-05-11T05:03:00.131Z,71.39
2016-05-11T05:04:00.103Z,71.19
2016-05-11T05:04:59.934Z,71.39
2016-05-11T05:06:00.077Z,70.9
2016-05-11T05:07:00.064Z,70.72
2016-05-11T05:08:00.035Z,69.95
2016-05-11T05:09:00.022Z,69.95
2016-05-11T05:09:59.853Z,70.14
2016-05-11T05:10:59.981Z,70.07
2016-05-11T05:11:59.968Z,69.98
2016-05-11T05:12:59.955Z,69.98
2016-05-11T05:13:59.770Z,69.5
2016-05-11T05:14:59.929Z,70.37
2016-05-11T05:16:00.385Z,69.5
2016-05-11T05:16:59.888Z,68.92
2016-05-11T05:18:00.077Z,68.83
2016-05-11T05:19:01.330Z,68.44
2016-05-11T05:19:59.818Z,68.35
2016-05-11T05:20:59.804Z,68.15
2016-05-11T05:21:59.791Z,68.44
2016-05-11T05:22:59.779Z,68.25
2016-05-11T05:23:59.750Z,67.77
2016-05-11T05:24:59.754Z,68.73
2016-05-11T05:25:59.723Z,69.5
2016-05-11T05:26:59.712Z,69.89
2016-05-11T05:27:59.682Z,69.98
2016-05-11T05:28:59.670Z,70.21
2016-05-11T05:29:59.656Z,70.46
2016-05-11T05:30:59.645Z,70.46
2016-05-11T05:31:59.615Z,70.27
2016-05-11T05:32:59.650Z,70.17
2016-05-11T05:33:59.574Z,69.82
2016-05-11T05:34:59.561Z,69.89
2016-05-11T05:35:59.548Z,69.98
2016-05-11T05:36:59.535Z,70.27
2016-05-11T05:37:59.522Z,70.27
2016-05-11T05:38:59.494Z,70.27
2016-05-11T05:39:59.481Z,69.4
2016-05-11T05:40:59.467Z,69.92
2016-05-11T05:41:59.439Z,69.53
2016-05-11T05:42:59.427Z,69.24
2016-05-11T05:43:59.413Z,68.67
2016-05-11T05:44:59.228Z,68.76
2016-05-11T05:45:59.231Z,68.09
2016-05-11T05:46:59.358Z,68.13
2016-05-11T05:47:59.346Z,67.55
2016-05-11T05:48:59.333Z,67.93
2016-05-11T05:49:59.149Z,67.65
2016-05-11T05:50:59.291Z,67.74
2016-05-11T05:51:59.122Z,66.58
2016-05-11T05:52:59.109Z,67.16
2016-05-11T05:53:59.237Z,67.68
2016-05-11T05:54:59.224Z,67.39
2016-05-11T05:55:59.211Z,67.19
2016-05-11T05:56:59.026Z,67.19
2016-05-11T05:57:59.170Z,66.1
2016-05-11T05:58:59.172Z,66.33
2016-05-11T05:59:59.143Z,67.19
2016-05-11T06:00:59.178Z,66.91
2016-05-11T06:01:59.117Z,66.81
2016-05-11T06:02:59.090Z,66.33
2016-05-11T06:03:59.092Z,65.75
2016-05-11T06:04:59.048Z,66.24
2016-05-11T06:05:59.034Z,65.66
2016-05-11T06:06:59.037Z,65.08
2016-05-11T06:07:59.025Z,64.79
2016-05-11T06:08:58.996Z,65.37
2016-05-11T06:09:58.984Z,65.27
2016-05-11T06:10:58.970Z,65.37
2016-05-11T06:11:58.800Z,65.08
2016-05-11T06:12:58.929Z,64.69
2016-05-11T06:13:58.916Z,65.46
2016-05-11T06:14:58.903Z,65.37
2016-05-11T06:15:59.358Z,64.79
2016-05-11T06:16:58.861Z,65.27
2016-05-11T06:17:58.849Z,64.59
2016-05-11T06:18:58.835Z,64.05
2016-05-11T06:20:05.620Z,64.05
2016-05-11T06:21:02.028Z,63.47
2016-05-11T06:21:58.984Z,63.5
2016-05-11T06:22:59.925Z,62.83
2016-05-11T06:24:02.162Z,61.87
2016-05-11T06:24:58.851Z,61.96
2016-05-11T06:26:03.057Z,61.96
2016-05-11T06:27:01.263Z,60.64
2016-05-11T06:27:59.954Z,59.65
2016-05-11T06:28:58.863Z,59.68
2016-05-11T06:29:58.709Z,59.87
2016-05-11T06:30:58.524Z,59.1
2016-05-11T06:31:58.620Z,58.23
2016-05-11T06:32:58.608Z,58.42
2016-05-11T06:33:58.595Z,58.14
2016-05-11T06:34:58.582Z,57.56
2016-05-11T06:35:58.554Z,57.29
2016-05-11T06:36:58.540Z,56.91
2016-05-11T06:37:58.528Z,56.52
2016-05-11T06:38:58.530Z,55.66
2016-05-11T06:39:58.501Z,56.62
2016-05-11T06:40:58.489Z,56.52
2016-05-11T06:41:58.303Z,55.59
2016-05-11T06:42:58.463Z,55.59
2016-05-11T06:43:58.293Z,54.82
2016-05-11T06:44:58.421Z,54.65
2016-05-11T06:45:58.253Z,53.39
2016-05-11T06:46:58.395Z,52.91
2016-05-11T06:47:58.227Z,53.71
2016-05-11T06:48:58.369Z,52.65
2016-05-11T06:49:58.357Z,51.59
2016-05-11T06:50:58.344Z,51.97
2016-05-11T06:51:58.315Z,51.68
2016-05-11T06:52:58.333Z,50.93
2016-05-11T06:53:58.289Z,50.62
2016-05-11T06:54:58.291Z,50.43
2016-05-11T06:55:58.263Z,50.35
2016-05-11T06:56:58.251Z,50.91
2016-05-11T06:57:58.237Z,50.81
2016-05-11T06:58:58.224Z,50.55
2016-05-11T06:59:58.212Z,50.65
2016-05-11T07:00:58.215Z,50.09
2016-05-11T07:02:03.733Z,48.93
2016-05-11T07:02:58.172Z,48.01
2016-05-11T07:03:58.176Z,47.64
2016-05-11T07:04:58.148Z,46.87
2016-05-11T07:05:58.118Z,46.31
2016-05-11T07:06:58.121Z,46.12
2016-05-11T07:07:58.123Z,44.78
2016-05-11T07:08:58.095Z,43.45
2016-05-11T07:09:58.082Z,42.33
2016-05-11T07:10:58.069Z,40.69
2016-05-11T07:11:58.056Z,39.28
2016-05-11T07:12:58.043Z,38.42
2016-05-11T07:13:58.015Z,36.98
2016-05-11T07:14:58.017Z,36.63
2016-05-11T07:15:58.098Z,35.86
2016-05-11T07:16:57.991Z,34.61
2016-05-11T07:17:57.994Z,34.14
2016-05-11T07:18:57.981Z,32.71
2016-05-11T07:19:57.952Z,33.4
2016-05-11T07:20:57.955Z,32.03
2016-05-11T07:21:57.943Z,31.26
2016-05-11T07:22:57.929Z,30.98
2016-05-11T07:23:57.932Z,30.61
2016-05-11T07:24:57.919Z,29.06
2016-05-11T07:25:57.906Z,27.8
2016-05-11T07:26:57.910Z,26.83
2016-05-11T07:27:57.741Z,26.95
2016-05-11T07:28:57.899Z,26.27
2016-05-11T07:29:57.729Z,26.65
2016-05-11T07:30:57.888Z,25.78
2016-05-11T07:31:57.876Z,25.31
2016-05-11T07:32:57.862Z,25.7
2016-05-11T07:33:57.881Z,25.4
2016-05-11T07:34:57.853Z,25.21
2016-05-11T07:35:57.840Z,24.73
2016-05-11T07:36:57.858Z,25.12
2016-05-11T07:37:57.845Z,24.64
2016-05-11T07:38:57.676Z,25.13
2016-05-11T07:39:57.835Z,24.74
2016-05-11T07:40:59.259Z,23.08
2016-05-11T07:41:57.825Z,22.31
2016-05-11T07:42:59.343Z,22.22
2016-05-11T07:44:00.595Z,22.22
2016-05-11T07:45:00.348Z,21.73
2016-05-11T07:46:01.023Z,22.03
2016-05-11T07:46:59.839Z,22.13
2016-05-11T07:47:59.966Z,21.64
2016-05-11T07:48:57.781Z,21.73
2016-05-11T07:50:00.049Z,21.73
2016-05-11T07:51:00.739Z,20.95
2016-05-11T07:52:00.413Z,21.64
2016-05-11T07:53:00.619Z,21.25
2016-05-11T07:54:00.561Z,21.06
2016-05-11T07:55:00.719Z,20.85
2016-05-11T07:56:00.722Z,21.65
2016-05-11T07:57:00.396Z,22.33
2016-05-11T07:58:00.507Z,22.24
2016-05-11T07:59:00.246Z,22.35
2016-05-11T08:00:00.546Z,22.25
2016-05-11T08:01:00.579Z,21.95
2016-05-11T08:02:00.316Z,20.78
2016-05-11T08:03:00.396Z,20.2
2016-05-11T08:04:00.556Z,20.79
2016-05-11T08:05:00.215Z,20.11
2016-05-11T08:06:00.452Z,20.7
2016-05-11T08:07:00.548Z,20.11
2016-05-11T08:07:59.348Z,20.7
2016-05-11T08:09:00.115Z,21.36
2016-05-11T08:10:00.306Z,21.73
2016-05-11T08:11:00.450Z,20.97
2016-05-11T08:11:57.703Z,20.68
2016-05-11T08:12:57.705Z,20.19
2016-05-11T08:13:59.379Z,20.28
2016-05-11T08:15:00.539Z,20.68
2016-05-11T08:15:59.103Z,21.73
2016-05-11T08:17:00.622Z,21.15
2016-05-11T08:17:57.687Z,20.95
2016-05-11T08:18:57.689Z,22.05
2016-05-11T08:19:57.692Z,20.38
2016-05-11T08:20:57.680Z,20.39
2016-05-11T08:21:57.682Z,20.49
2016-05-11T08:22:57.669Z,20.49
2016-05-11T08:23:57.672Z,20.6
2016-05-11T08:24:57.675Z,19.81
2016-05-11T08:25:57.661Z,20.09
2016-05-11T08:26:57.664Z,20.57
2016-05-11T08:27:58.371Z,20.67
2016-05-11T08:28:57.654Z,20.19
2016-05-11T08:29:57.657Z,20.09
2016-05-11T08:30:57.785Z,20.49
2016-05-11T08:31:57.662Z,20.39
2016-05-11T08:32:57.649Z,20
2016-05-11T08:33:57.652Z,20.29
2016-05-11T08:34:57.639Z,20.97
2016-05-11T08:35:57.642Z,21.14
2016-05-11T08:36:57.629Z,20.65
2016-05-11T08:37:57.631Z,21.54
2016-05-11T08:38:57.634Z,21.05
2016-05-11T08:39:57.621Z,21.84
2016-05-11T08:40:57.624Z,22.03
2016-05-11T08:41:57.626Z,21.25
2016-05-11T08:42:57.614Z,20.76
2016-05-11T08:43:57.617Z,20.76
2016-05-11T08:44:57.619Z,20.47
2016-05-11T08:45:58.231Z,20.67
2016-05-11T08:46:57.609Z,22.33
2016-05-11T08:47:57.611Z,23.09
2016-05-11T08:48:57.599Z,26
2016-05-11T08:49:57.586Z,26.83
2016-05-11T08:50:57.619Z,26.61
2016-05-11T08:51:57.591Z,26.15
2016-05-11T08:52:57.422Z,25.49
2016-05-11T08:53:57.580Z,25.88
2016-05-11T08:54:57.583Z,26.86
2016-05-11T08:55:57.571Z,27.42
2016-05-11T08:56:57.558Z,27.59
2016-05-11T08:57:57.560Z,28.06
2016-05-11T08:58:57.547Z,28.92
2016-05-11T08:59:57.613Z,29.88
2016-05-11T09:00:57.646Z,30.35
2016-05-11T09:01:57.524Z,30.93
2016-05-11T09:02:57.543Z,31.79
2016-05-11T09:03:57.514Z,32.16
2016-05-11T09:04:57.501Z,33.12
2016-05-11T09:05:57.503Z,33.98
2016-05-11T09:06:57.491Z,35.15
2016-05-11T09:07:57.478Z,35.03
2016-05-11T09:08:57.464Z,36.2
2016-05-11T09:09:57.468Z,36.28
2016-05-11T09:10:57.454Z,36.46
2016-05-11T09:11:57.442Z,37.62
2016-05-11T09:12:57.429Z,38.87
2016-05-11T09:13:57.431Z,38.96
2016-05-11T09:14:57.403Z,39.82
2016-05-11T09:15:57.405Z,42.35
2016-05-11T09:16:57.642Z,41.82
2016-05-11T09:17:57.223Z,41.22
2016-05-11T09:18:57.366Z,41.78
2016-05-11T09:19:57.370Z,41.97
2016-05-11T09:20:57.356Z,43.64
2016-05-11T09:21:57.328Z,43.91
2016-05-11T09:22:57.315Z,44.59
2016-05-11T09:23:57.302Z,45.65
2016-05-11T09:24:57.289Z,46.6
2016-05-11T09:25:57.277Z,44.84
2016-05-11T09:26:57.263Z,45.81
2016-05-11T09:27:57.266Z,45.61
2016-05-11T09:28:57.253Z,45.49
2016-05-11T09:29:57.224Z,46.66
2016-05-11T09:30:57.211Z,45.51
2016-05-11T09:31:57.230Z,45.68
2016-05-11T09:32:57.201Z,46.34
2016-05-11T09:33:57.032Z,47.31
2016-05-11T09:34:57.176Z,46.05
2016-05-11T09:35:57.178Z,45.95
2016-05-11T09:36:57.149Z,45.57
2016-05-11T09:37:57.136Z,46.25
2016-05-11T09:38:57.124Z,45.2
2016-05-11T09:39:57.111Z,45.49
2016-05-11T09:40:57.098Z,45.88
2016-05-11T09:41:57.070Z,46.36
2016-05-11T09:42:57.056Z,45.59
2016-05-11T09:43:57.059Z,46.56
2016-05-11T09:44:57.030Z,46.48
2016-05-11T09:45:57.017Z,46.58
2016-05-11T09:46:57.004Z,46.19
2016-05-11T09:47:56.992Z,44.26
2016-05-11T09:48:56.978Z,45.68
2016-05-11T09:49:56.966Z,45.3
2016-05-11T09:50:56.953Z,43.55
2016-05-11T09:51:56.940Z,43.37
2016-05-11T09:52:56.942Z,44.45
2016-05-11T09:53:56.758Z,42.8
2016-05-11T09:54:56.900Z,42.51
2016-05-11T09:55:56.903Z,42.8
2016-05-11T09:56:56.719Z,41.55
2016-05-11T09:57:56.863Z,42.2
2016-05-11T09:58:56.849Z,40.58
2016-05-11T09:59:56.836Z,40.56
2016-05-11T10:00:56.823Z,40.26
2016-05-11T10:01:56.810Z,40.46
2016-05-11T10:02:56.641Z,40.75
2016-05-11T10:03:56.784Z,40.75
2016-05-11T10:04:56.772Z,42.2
2016-05-11T10:05:56.602Z,37.75
2016-05-11T10:06:56.762Z,35.81
2016-05-11T10:07:56.718Z,36.02
2016-05-11T10:08:56.704Z,37.67
2016-05-11T10:09:56.535Z,39.03
2016-05-11T10:10:56.679Z,39.39
2016-05-11T10:11:56.681Z,40.36
2016-05-11T10:12:56.653Z,38.23
2016-05-11T10:13:56.656Z,37.55
2016-05-11T10:14:56.626Z,38.62
2016-05-11T10:15:56.629Z,37.19
2016-05-11T10:16:56.601Z,36.51
2016-05-11T10:17:56.587Z,36.51
2016-05-11T10:18:56.591Z,36.7
2016-05-11T10:19:56.578Z,38.64
2016-05-11T10:20:56.550Z,37.21
2016-05-11T10:21:56.536Z,36.14
2016-05-11T10:22:56.522Z,36.24
2016-05-11T10:23:56.511Z,38.17
2016-05-11T10:24:56.497Z,37.69
2016-05-11T10:25:56.484Z,37.98
2016-05-11T10:26:56.472Z,38.27
2016-05-11T10:27:56.443Z,38.54
2016-05-11T10:28:56.289Z,37.69
2016-05-11T10:29:56.433Z,38.17
2016-05-11T10:30:56.419Z,39.22
2016-05-11T10:32:43.673Z,38.83
2016-05-11T10:32:56.472Z,37.4
2016-05-11T10:33:56.444Z,37.3
2016-05-11T10:34:56.415Z,37.3
2016-05-11T10:35:56.419Z,39.24
2016-05-11T10:36:56.388Z,36.91
2016-05-11T10:37:56.377Z,37.4
2016-05-11T10:38:56.379Z,37.69
2016-05-11T10:39:56.351Z,37.69
2016-05-11T10:40:56.338Z,37.88
2016-05-11T10:41:56.325Z,38.17
2016-05-11T10:42:56.327Z,38.46
2016-05-11T10:43:56.296Z,37.79
2016-05-11T10:44:56.282Z,37.69
2016-05-11T10:45:56.710Z,36.64
2016-05-11T10:46:56.257Z,35.77
2016-05-11T10:47:56.244Z,37.61
2016-05-11T10:48:56.734Z,35.86
2016-05-11T10:49:56.234Z,34.8
2016-05-11T10:50:56.206Z,34.43
2016-05-11T10:51:56.192Z,33.65
2016-05-11T10:52:56.179Z,33.56
2016-05-11T10:53:57.310Z,33.75
2016-05-11T10:54:56.170Z,31.32
2016-05-11T10:55:56.141Z,31.32
2016-05-11T10:56:56.128Z,30.94
2016-05-11T10:57:56.114Z,32.49
2016-05-11T10:58:56.758Z,31.21
2016-05-11T10:59:56.089Z,29.66
2016-05-11T11:00:56.342Z,31.02
2016-05-11T11:01:56.063Z,31.81
2016-05-11T11:02:56.050Z,31.23
2016-05-11T11:03:56.459Z,31.02
2016-05-11T11:04:55.869Z,28.59
2016-05-11T11:05:56.011Z,29.08
2016-05-11T11:06:55.999Z,27.82
2016-05-11T11:07:55.986Z,27.82
2016-05-11T11:08:55.972Z,28.59
2016-05-11T11:09:55.804Z,30.05
2016-05-11T11:10:55.946Z,30.05
2016-05-11T11:11:55.935Z,32.57
2016-05-11T11:12:55.921Z,32.29
2016-05-11T11:13:55.907Z,31.42
2016-05-11T11:14:55.896Z,31.71
2016-05-11T11:15:55.741Z,32.39
2016-05-11T11:16:55.868Z,34.31
2016-05-11T11:17:55.700Z,32.86
2016-05-11T11:18:56.547Z,30.73
2016-05-11T11:19:55.831Z,29.66
2016-05-11T11:20:55.676Z,29.85
2016-05-11T11:21:55.805Z,31.5
2016-05-11T11:22:55.792Z,31.79
2016-05-11T11:23:55.779Z,32.86
2016-05-11T11:24:55.765Z,30.92
2016-05-11T11:25:55.753Z,28.5
2016-05-11T11:26:55.725Z,29.47
2016-05-11T11:27:55.727Z,30.24
2016-05-11T11:28:55.714Z,31.68
2016-05-11T11:29:55.686Z,31.01
2016-05-11T11:30:55.688Z,30.82
2016-05-11T11:31:55.675Z,30.05
2016-05-11T11:32:55.553Z,31.02
2016-05-11T11:33:55.494Z,31.6
2016-05-11T11:34:55.636Z,31.7
2016-05-11T11:35:55.624Z,31.87
2016-05-11T11:36:55.610Z,30.63
2016-05-11T11:37:55.597Z,30.42
2016-05-11T11:38:55.600Z,30.52
2016-05-11T11:39:55.571Z,32.07
2016-05-11T11:40:55.558Z,31.97
2016-05-11T11:41:55.546Z,31.39
2016-05-11T11:42:55.533Z,33.42
2016-05-11T11:43:55.520Z,33.42
2016-05-11T11:44:55.491Z,33.14
2016-05-11T11:45:55.479Z,32.46
2016-05-11T11:46:55.466Z,32.24
2016-05-11T11:47:55.452Z,33.02
2016-05-11T11:48:55.440Z,33.41
2016-05-11T11:49:55.427Z,33.91
2016-05-11T11:50:55.414Z,34.38
2016-05-11T11:51:55.400Z,32.44
2016-05-11T11:52:55.388Z,33.41
2016-05-11T11:53:55.375Z,32.34
2016-05-11T11:54:55.362Z,31.96
2016-05-11T11:55:55.348Z,33.41
2016-05-11T11:56:55.337Z,32.44
2016-05-11T11:57:55.323Z,33.22
2016-05-11T11:58:55.310Z,31.87
2016-05-11T11:59:55.298Z,31.18
2016-05-11T12:00:55.723Z,33.6
2016-05-11T12:01:55.272Z,32.44
2016-05-11T12:02:55.242Z,33.72
2016-05-11T12:03:55.230Z,33.14
2016-05-11T12:04:55.217Z,34.3
2016-05-11T12:05:55.204Z,32.94
2016-05-11T12:06:55.207Z,31.29
2016-05-11T12:07:55.022Z,34.59
2016-05-11T12:08:55.166Z,32.07
2016-05-11T12:09:55.168Z,32.26
2016-05-11T12:10:55.171Z,31.39
2016-05-11T12:11:55.127Z,28.58
2016-05-11T12:12:55.114Z,28.29
2016-05-11T12:13:55.101Z,28.29
2016-05-11T12:14:55.088Z,28.49
2016-05-11T12:15:55.402Z,29.84
2016-05-11T12:16:55.093Z,28.87
2016-05-11T12:17:55.049Z,28.77
2016-05-11T12:18:55.035Z,28.19
2016-05-11T12:19:55.023Z,28
2016-05-11T12:20:55.010Z,27.42
2016-05-11T12:21:54.998Z,27.81
2016-05-11T12:22:54.984Z,28.87
2016-05-11T12:23:54.846Z,30.04
2016-05-11T12:24:54.802Z,28.97
2016-05-11T12:25:54.929Z,28.29
2016-05-11T12:26:54.917Z,28.58
2016-05-11T12:27:54.904Z,28.39
2016-05-11T12:28:54.907Z,29.84
2016-05-11T12:29:54.894Z,28.49
2016-05-11T12:30:55.006Z,28.39
2016-05-11T12:31:54.852Z,28.87
2016-05-11T12:32:54.855Z,27.51
2016-05-11T12:33:54.826Z,27.71
2016-05-11T12:34:54.813Z,27.71
2016-05-11T12:35:54.800Z,28.77
2016-05-11T12:36:54.788Z,27.91
2016-05-11T12:37:54.644Z,27.91
2016-05-11T12:38:54.834Z,27.71
2016-05-11T12:39:54.869Z,29.94
2016-05-11T12:40:54.903Z,29.94
2016-05-11T12:41:54.937Z,28.97
2016-05-11T12:42:54.955Z,31.49
2016-05-11T12:43:54.803Z,30.52
2016-05-11T12:44:54.963Z,31.01
2016-05-11T12:45:55.076Z,31.79
2016-05-11T12:46:54.971Z,31.78
2016-05-11T12:47:54.953Z,30.54
2016-05-11T12:48:54.946Z,30.91
2016-05-11T12:49:54.955Z,30.82
2016-05-11T12:50:54.949Z,31.39
2016-05-11T12:51:54.927Z,30.73
2016-05-11T12:52:54.917Z,30.63
2016-05-11T12:53:54.906Z,29.57
2016-05-11T12:54:54.895Z,29.57